sensor_id;sensor_type;location;lat;lon;timestamp;pressure;altitude;pressure_sealevel;temperature;humidity
59877;BME280;45749;51.140;17.184;2022-12-07T00:01:26;99654.62;;;2.12;100.00
59877;BME280;45749;51.140;17.184;2022-12-07T00:03:52;99649.78;;;2.13;100.00
59877;BME280;45749;51.140;17.184;2022-12-07T00:06:20;99648.95;;;2.13;100.00
59877;BME280;45749;51.140;17.184;2022-12-07T00:08:47;99654.09;;;2.14;100.00
59877;BME280;45749;51.140;17.184;2022-12-07T00:11:19;99643.22;;;2.15;100.00
59877;BME280;45749;51.140;17.184;2022-12-07T00:13:47;99647.12;;;2.15;100.00
59877;BME280;45749;51.140;17.184;2022-12-07T00:16:19;99647.97;;;2.15;100.00
59877;BME280;45749;51.140;17.184;2022-12-07T00:18:46;99650.48;;;2.17;100.00
59877;BME280;45749;51.140;17.184;2022-12-07T00:21:18;99649.27;;;2.15;100.00
59877;BME280;45749;51.140;17.184;2022-12-07T00:23:45;99644.06;;;2.15;100.00
59877;BME280;45749;51.140;17.184;2022-12-07T00:26:15;99637.61;;;2.14;100.00
59877;BME280;45749;51.140;17.184;2022-12-07T00:28:52;99637.18;;;2.14;100.00
59877;BME280;45749;51.140;17.184;2022-12-07T00:31:21;99638.08;;;2.13;100.00
59877;BME280;45749;51.140;17.184;2022-12-07T00:33:48;99632.03;;;2.13;100.00
59877;BME280;45749;51.140;17.184;2022-12-07T00:36:18;99630.27;;;2.13;100.00
59877;BME280;45749;51.140;17.184;2022-12-07T00:38:45;99632.03;;;2.13;100.00
59877;BME280;45749;51.140;17.184;2022-12-07T00:41:13;99630.36;;;2.11;100.00
59877;BME280;45749;51.140;17.184;2022-12-07T00:43:41;99626.91;;;2.11;100.00
59877;BME280;45749;51.140;17.184;2022-12-07T00:46:09;99625.67;;;2.09;100.00
59877;BME280;45749;51.140;17.184;2022-12-07T00:48:35;99621.77;;;2.09;100.00
59877;BME280;45749;51.140;17.184;2022-12-07T00:51:02;99620.00;;;2.10;100.00
59877;BME280;45749;51.140;17.184;2022-12-07T00:53:29;99621.30;;;2.10;100.00
59877;BME280;45749;51.140;17.184;2022-12-07T00:55:55;99629.58;;;2.09;100.00
59877;BME280;45749;51.140;17.184;2022-12-07T00:58:22;99627.06;;;2.08;100.00
59877;BME280;45749;51.140;17.184;2022-12-07T01:00:48;99632.64;;;2.09;100.00
59877;BME280;45749;51.140;17.184;2022-12-07T01:03:16;99633.95;;;2.09;100.00
59877;BME280;45749;51.140;17.184;2022-12-07T01:05:50;99632.18;;;2.09;100.00
59877;BME280;45749;51.140;17.184;2022-12-07T01:08:18;99633.95;;;2.09;100.00
59877;BME280;45749;51.140;17.184;2022-12-07T01:10:44;99632.27;;;2.08;100.00
59877;BME280;45749;51.140;17.184;2022-12-07T01:13:11;99632.64;;;2.09;100.00
59877;BME280;45749;51.140;17.184;2022-12-07T01:15:41;99634.78;;;2.09;100.00
59877;BME280;45749;51.140;17.184;2022-12-07T01:18:08;99626.14;;;2.09;100.00
59877;BME280;45749;51.140;17.184;2022-12-07T01:20:35;99631.80;;;2.08;100.00
59877;BME280;45749;51.140;17.184;2022-12-07T01:23:01;99624.92;;;2.07;100.00
59877;BME280;45749;51.140;17.184;2022-12-07T01:25:27;99623.53;;;2.09;100.00
59877;BME280;45749;51.140;17.184;2022-12-07T01:27:53;99620.94;;;2.09;100.00
59877;BME280;45749;51.140;17.184;2022-12-07T01:30:19;99616.25;;;2.07;100.00
59877;BME280;45749;51.140;17.184;2022-12-07T01:32:45;99620.15;;;2.07;100.00
59877;BME280;45749;51.140;17.184;2022-12-07T01:35:11;99618.84;;;2.07;100.00
59877;BME280;45749;51.140;17.184;2022-12-07T01:37:38;99621.45;;;2.07;100.00
59877;BME280;45749;51.140;17.184;2022-12-07T01:40:06;99625.81;;;2.06;100.00
59877;BME280;45749;51.140;17.184;2022-12-07T01:42:33;99617.17;;;2.06;100.00
59877;BME280;45749;51.140;17.184;2022-12-07T01:45:43;99619.63;;;2.09;100.00
59877;BME280;45749;51.140;17.184;2022-12-07T01:48:07;99626.60;;;2.08;100.00
59877;BME280;45749;51.140;17.184;2022-12-07T01:50:36;99617.48;;;2.08;100.00
59877;BME280;45749;51.140;17.184;2022-12-07T01:53:04;99623.16;;;2.08;100.00
59877;BME280;45749;51.140;17.184;2022-12-07T01:55:33;99620.23;;;2.05;100.00
59877;BME280;45749;51.140;17.184;2022-12-07T01:58:00;99620.56;;;2.08;100.00
59877;BME280;45749;51.140;17.184;2022-12-07T02:00:26;99618.02;;;2.06;100.00
59877;BME280;45749;51.140;17.184;2022-12-07T02:03:00;99623.22;;;2.06;100.00
59877;BME280;45749;51.140;17.184;2022-12-07T02:05:34;99624.14;;;2.05;100.00
59877;BME280;45749;51.140;17.184;2022-12-07T02:08:03;99625.59;;;2.02;100.00
59877;BME280;45749;51.140;17.184;2022-12-07T02:10:30;99621.78;;;2.01;100.00
59877;BME280;45749;51.140;17.184;2022-12-07T02:24:57;99619.33;;;1.98;100.00
59877;BME280;45749;51.140;17.184;2022-12-07T02:30:17;99618.63;;;1.94;100.00
59877;BME280;45749;51.140;17.184;2022-12-07T02:38:18;99614.32;;;1.93;100.00
59877;BME280;45749;51.140;17.184;2022-12-07T02:43:41;99623.52;;;1.92;100.00
59877;BME280;45749;51.140;17.184;2022-12-07T02:48:51;99610.66;;;1.88;100.00
59877;BME280;45749;51.140;17.184;2022-12-07T02:51:19;99609.03;;;1.86;100.00
59877;BME280;45749;51.140;17.184;2022-12-07T02:53:45;99607.82;;;1.84;100.00
59877;BME280;45749;51.140;17.184;2022-12-07T03:08:48;99609.41;;;1.87;100.00
59877;BME280;45749;51.140;17.184;2022-12-07T03:14:02;99610.34;;;1.86;100.00
59877;BME280;45749;51.140;17.184;2022-12-07T03:16:41;99609.96;;;1.85;100.00
59877;BME280;45749;51.140;17.184;2022-12-07T03:19:17;99611.72;;;1.84;100.00
59877;BME280;45749;51.140;17.184;2022-12-07T03:21:51;99610.34;;;1.86;100.00
59877;BME280;45749;51.140;17.184;2022-12-07T03:24:26;99608.95;;;1.87;100.00
59877;BME280;45749;51.140;17.184;2022-12-07T03:27:00;99603.00;;;1.85;100.00
59877;BME280;45749;51.140;17.184;2022-12-07T03:29:36;99604.81;;;1.83;100.00
59877;BME280;45749;51.140;17.184;2022-12-07T03:32:31;99599.61;;;1.83;100.00
59877;BME280;45749;51.140;17.184;2022-12-07T03:35:27;99601.31;;;1.84;100.00
59877;BME280;45749;51.140;17.184;2022-12-07T03:38:00;99595.71;;;1.83;100.00
59877;BME280;45749;51.140;17.184;2022-12-07T03:43:12;99598.45;;;1.80;100.00
59877;BME280;45749;51.140;17.184;2022-12-07T03:45:48;99598.45;;;1.80;100.00
59877;BME280;45749;51.140;17.184;2022-12-07T03:48:22;99589.75;;;1.81;100.00
59877;BME280;45749;51.140;17.184;2022-12-07T03:50:57;99583.63;;;1.82;100.00
59877;BME280;45749;51.140;17.184;2022-12-07T03:53:36;99594.03;;;1.82;100.00
59877;BME280;45749;51.140;17.184;2022-12-07T03:56:07;99588.05;;;1.80;100.00
59877;BME280;45749;51.140;17.184;2022-12-07T03:58:35;99585.91;;;1.80;100.00
59877;BME280;45749;51.140;17.184;2022-12-07T04:01:02;99584.15;;;1.80;100.00
59877;BME280;45749;51.140;17.184;2022-12-07T04:03:28;99588.05;;;1.80;100.00
59877;BME280;45749;51.140;17.184;2022-12-07T04:05:54;99583.31;;;1.80;100.00
59877;BME280;45749;51.140;17.184;2022-12-07T04:08:20;99588.89;;;1.81;100.00
59877;BME280;45749;51.140;17.184;2022-12-07T04:10:46;99586.75;;;1.80;100.00
59877;BME280;45749;51.140;17.184;2022-12-07T04:13:12;99588.45;;;1.81;100.00
59877;BME280;45749;51.140;17.184;2022-12-07T04:15:38;99586.23;;;1.82;100.00
59877;BME280;45749;51.140;17.184;2022-12-07T04:18:04;99584.84;;;1.84;100.00
59877;BME280;45749;51.140;17.184;2022-12-07T04:20:30;99581.72;;;1.86;100.00
59877;BME280;45749;51.140;17.184;2022-12-07T04:22:56;99589.52;;;1.86;100.00
59877;BME280;45749;51.140;17.184;2022-12-07T04:25:22;99594.73;;;1.86;100.00
59877;BME280;45749;51.140;17.184;2022-12-07T04:27:48;99583.11;;;1.84;100.00
59877;BME280;45749;51.140;17.184;2022-12-07T04:30:14;99592.64;;;1.84;100.00
59877;BME280;45749;51.140;17.184;2022-12-07T04:32:40;99591.75;;;1.85;100.00
59877;BME280;45749;51.140;17.184;2022-12-07T04:35:06;99591.75;;;1.85;100.00
59877;BME280;45749;51.140;17.184;2022-12-07T04:37:33;99590.50;;;1.83;100.00
59877;BME280;45749;51.140;17.184;2022-12-07T04:39:59;99588.45;;;1.81;100.00
59877;BME280;45749;51.140;17.184;2022-12-07T04:42:25;99585.77;;;1.83;100.00
59877;BME280;45749;51.140;17.184;2022-12-07T04:44:50;99587.06;;;1.83;100.00
59877;BME280;45749;51.140;17.184;2022-12-07T04:47:17;99579.64;;;1.84;100.00
59877;BME280;45749;51.140;17.184;2022-12-07T04:49:43;99589.20;;;1.83;100.00
59877;BME280;45749;51.140;17.184;2022-12-07T04:52:08;99582.33;;;1.82;100.00
59877;BME280;45749;51.140;17.184;2022-12-07T04:54:34;99578.80;;;1.83;100.00
59877;BME280;45749;51.140;17.184;2022-12-07T04:57:00;99580.88;;;1.85;100.00
59877;BME280;45749;51.140;17.184;2022-12-07T04:59:26;99580.51;;;1.84;100.00
59877;BME280;45749;51.140;17.184;2022-12-07T05:01:52;99584.78;;;1.85;100.00
59877;BME280;45749;51.140;17.184;2022-12-07T05:04:18;99580.05;;;1.85;100.00
59877;BME280;45749;51.140;17.184;2022-12-07T05:06:44;99581.34;;;1.85;100.00
59877;BME280;45749;51.140;17.184;2022-12-07T05:09:10;99587.39;;;1.85;100.00
59877;BME280;45749;51.140;17.184;2022-12-07T05:11:36;99575.22;;;1.86;100.00
59877;BME280;45749;51.140;17.184;2022-12-07T05:14:18;99579.12;;;1.86;100.00
59877;BME280;45749;51.140;17.184;2022-12-07T05:16:44;99578.28;;;1.85;100.00
59877;BME280;45749;51.140;17.184;2022-12-07T05:19:14;99579.20;;;1.84;100.00
59877;BME280;45749;51.140;17.184;2022-12-07T05:21:40;99584.00;;;1.83;100.00
59877;BME280;45749;51.140;17.184;2022-12-07T05:24:08;99581.49;;;1.82;100.00
59877;BME280;45749;51.140;17.184;2022-12-07T05:26:36;99584.93;;;1.82;100.00
59877;BME280;45749;51.140;17.184;2022-12-07T05:29:02;99582.33;;;1.82;100.00
59877;BME280;45749;51.140;17.184;2022-12-07T05:31:28;99576.20;;;1.83;100.00
59877;BME280;45749;51.140;17.184;2022-12-07T05:33:54;99575.67;;;1.85;100.00
59877;BME280;45749;51.140;17.184;2022-12-07T05:36:21;99574.84;;;1.85;100.00
59877;BME280;45749;51.140;17.184;2022-12-07T05:38:47;99579.12;;;1.86;100.00
59877;BME280;45749;51.140;17.184;2022-12-07T05:41:15;99581.72;;;1.86;100.00
59877;BME280;45749;51.140;17.184;2022-12-07T05:44:02;99573.53;;;1.85;100.00
59877;BME280;45749;51.140;17.184;2022-12-07T05:46:28;99580.88;;;1.85;100.00
59877;BME280;45749;51.140;17.184;2022-12-07T05:48:54;99578.80;;;1.83;100.00
59877;BME280;45749;51.140;17.184;2022-12-07T05:51:20;99581.40;;;1.83;100.00
59877;BME280;45749;51.140;17.184;2022-12-07T05:53:46;99579.73;;;1.82;100.00
59877;BME280;45749;51.140;17.184;2022-12-07T05:56:12;99578.80;;;1.83;100.00
59877;BME280;45749;51.140;17.184;2022-12-07T05:58:38;99575.30;;;1.84;100.00
59877;BME280;45749;51.140;17.184;2022-12-07T06:01:22;99586.41;;;1.88;100.00
59877;BME280;45749;51.140;17.184;2022-12-07T06:03:48;99583.25;;;1.90;100.00
59877;BME280;45749;51.140;17.184;2022-12-07T06:06:14;99583.33;;;1.88;100.00
59877;BME280;45749;51.140;17.184;2022-12-07T06:08:40;99585.84;;;1.90;100.00
59877;BME280;45749;51.140;17.184;2022-12-07T06:11:06;99573.83;;;1.87;100.00
59877;BME280;45749;51.140;17.184;2022-12-07T06:13:50;99575.53;;;1.88;100.00
59877;BME280;45749;51.140;17.184;2022-12-07T06:16:16;99582.03;;;1.88;100.00
59877;BME280;45749;51.140;17.184;2022-12-07T06:18:42;99584.23;;;1.87;100.00
59877;BME280;45749;51.140;17.184;2022-12-07T06:21:08;99573.45;;;1.86;100.00
59877;BME280;45749;51.140;17.184;2022-12-07T06:23:34;99580.41;;;1.86;100.00
59877;BME280;45749;51.140;17.184;2022-12-07T06:26:00;99577.81;;;1.86;100.00
59877;BME280;45749;51.140;17.184;2022-12-07T06:28:26;99576.52;;;1.86;100.00
59877;BME280;45749;51.140;17.184;2022-12-07T06:30:57;99579.95;;;1.86;100.00
59877;BME280;45749;51.140;17.184;2022-12-07T06:33:24;99583.80;;;1.88;100.00
59877;BME280;45749;51.140;17.184;2022-12-07T06:35:51;99580.33;;;1.87;100.00
59877;BME280;45749;51.140;17.184;2022-12-07T06:38:17;99577.35;;;1.86;100.00
59877;BME280;45749;51.140;17.184;2022-12-07T06:40:42;99578.66;;;1.86;100.00
59877;BME280;45749;51.140;17.184;2022-12-07T06:43:08;99584.69;;;1.87;100.00
59877;BME280;45749;51.140;17.184;2022-12-07T06:45:34;99587.61;;;1.90;100.00
59877;BME280;45749;51.140;17.184;2022-12-07T06:48:00;99578.50;;;1.90;100.00
59877;BME280;45749;51.140;17.184;2022-12-07T06:50:26;99583.33;;;1.88;100.00
59877;BME280;45749;51.140;17.184;2022-12-07T06:52:52;99581.57;;;1.89;100.00
59877;BME280;45749;51.140;17.184;2022-12-07T06:55:18;99584.64;;;1.88;100.00
59877;BME280;45749;51.140;17.184;2022-12-07T06:57:44;99581.63;;;1.87;100.00
59877;BME280;45749;51.140;17.184;2022-12-07T07:00:11;99587.61;;;1.90;100.00
59877;BME280;45749;51.140;17.184;2022-12-07T07:02:38;99587.61;;;1.90;100.00
59877;BME280;45749;51.140;17.184;2022-12-07T07:05:04;99590.99;;;1.92;100.00
59877;BME280;45749;51.140;17.184;2022-12-07T07:07:30;99585.02;;;1.90;100.00
59877;BME280;45749;51.140;17.184;2022-12-07T07:09:57;99587.47;;;1.93;100.00
59877;BME280;45749;51.140;17.184;2022-12-07T07:12:23;99578.82;;;1.92;100.00
59877;BME280;45749;51.140;17.184;2022-12-07T07:14:48;99584.86;;;1.93;100.00
59877;BME280;45749;51.140;17.184;2022-12-07T07:17:14;99584.02;;;1.92;100.00
59877;BME280;45749;51.140;17.184;2022-12-07T07:19:41;99585.33;;;1.92;100.00
59877;BME280;45749;51.140;17.184;2022-12-07T07:22:07;99584.02;;;1.92;100.00
59877;BME280;45749;51.140;17.184;2022-12-07T07:24:33;99577.89;;;1.93;100.00
59877;BME280;45749;51.140;17.184;2022-12-07T07:26:58;99580.58;;;1.92;100.00
59877;BME280;45749;51.140;17.184;2022-12-07T07:29:24;99583.25;;;1.90;100.00
59877;BME280;45749;51.140;17.184;2022-12-07T07:31:50;99577.30;;;1.88;100.00
59877;BME280;45749;51.140;17.184;2022-12-07T07:34:16;99575.13;;;1.87;100.00
59877;BME280;45749;51.140;17.184;2022-12-07T07:36:42;99574.23;;;1.88;100.00
59877;BME280;45749;51.140;17.184;2022-12-07T07:39:10;99571.22;;;1.87;100.00
59877;BME280;45749;51.140;17.184;2022-12-07T07:41:38;99574.23;;;1.88;100.00
59877;BME280;45749;51.140;17.184;2022-12-07T07:44:04;99576.28;;;1.91;100.00
59877;BME280;45749;51.140;17.184;2022-12-07T07:46:30;99581.80;;;1.93;100.00
59877;BME280;45749;51.140;17.184;2022-12-07T07:48:58;99578.30;;;1.94;100.00
59877;BME280;45749;51.140;17.184;2022-12-07T07:51:24;99573.38;;;1.97;100.00
59877;BME280;45749;51.140;17.184;2022-12-07T07:53:50;99579.42;;;1.97;100.00
59877;BME280;45749;51.140;17.184;2022-12-07T07:56:16;99581.96;;;1.99;100.00
59877;BME280;45749;51.140;17.184;2022-12-07T07:58:42;99577.59;;;1.99;100.00
59877;BME280;45749;51.140;17.184;2022-12-07T08:01:08;99568.80;;;2.02;100.00
59877;BME280;45749;51.140;17.184;2022-12-07T08:03:34;99572.62;;;2.03;100.00
59877;BME280;45749;51.140;17.184;2022-12-07T08:06:02;99570.85;;;2.04;100.00
59877;BME280;45749;51.140;17.184;2022-12-07T08:08:29;99576.92;;;2.04;100.00
59877;BME280;45749;51.140;17.184;2022-12-07T08:10:54;99574.75;;;2.04;100.00
59877;BME280;45749;51.140;17.184;2022-12-07T08:13:20;99579.13;;;2.03;100.00
59877;BME280;45749;51.140;17.184;2022-12-07T08:15:47;99580.83;;;2.04;100.00
59877;BME280;45749;51.140;17.184;2022-12-07T08:18:14;99583.86;;;2.04;100.00
59877;BME280;45749;51.140;17.184;2022-12-07T08:20:42;99592.45;;;2.06;100.00
59877;BME280;45749;51.140;17.184;2022-12-07T08:23:08;99584.27;;;2.05;100.00
59877;BME280;45749;51.140;17.184;2022-12-07T08:25:35;99579.81;;;2.07;100.00
59877;BME280;45749;51.140;17.184;2022-12-07T08:28:02;99583.19;;;2.09;100.00
59877;BME280;45749;51.140;17.184;2022-12-07T08:30:29;99580.96;;;2.10;100.00
59877;BME280;45749;51.140;17.184;2022-12-07T08:32:56;99587.41;;;2.11;100.00
59877;BME280;45749;51.140;17.184;2022-12-07T08:35:22;99583.97;;;2.11;100.00
59877;BME280;45749;51.140;17.184;2022-12-07T08:37:48;99584.87;;;2.10;100.00
59877;BME280;45749;51.140;17.184;2022-12-07T08:40:15;99587.01;;;2.10;100.00
59877;BME280;45749;51.140;17.184;2022-12-07T08:42:49;99582.20;;;2.11;100.00
59877;BME280;45749;51.140;17.184;2022-12-07T08:45:17;99578.21;;;2.13;100.00
59877;BME280;45749;51.140;17.184;2022-12-07T08:47:57;99578.16;;;2.15;100.00
59877;BME280;45749;51.140;17.184;2022-12-07T08:50:24;99578.52;;;2.16;100.00
59877;BME280;45749;51.140;17.184;2022-12-07T08:52:53;99576.70;;;2.18;100.00
59877;BME280;45749;51.140;17.184;2022-12-07T08:55:20;99574.84;;;2.20;100.00
59877;BME280;45749;51.140;17.184;2022-12-07T08:57:47;99570.78;;;2.23;100.00
59877;BME280;45749;51.140;17.184;2022-12-07T09:00:14;99567.19;;;2.25;100.00
59877;BME280;45749;51.140;17.184;2022-12-07T09:02:43;99566.58;;;2.29;100.00
59877;BME280;45749;51.140;17.184;2022-12-07T09:05:10;99566.89;;;2.31;100.00
59877;BME280;45749;51.140;17.184;2022-12-07T09:07:37;99564.28;;;2.31;100.00
59877;BME280;45749;51.140;17.184;2022-12-07T09:10:05;99561.99;;;2.34;100.00
59877;BME280;45749;51.140;17.184;2022-12-07T09:12:31;99560.13;;;2.36;100.00
59877;BME280;45749;51.140;17.184;2022-12-07T09:14:57;99559.05;;;2.40;100.00
59877;BME280;45749;51.140;17.184;2022-12-07T09:17:23;99553.25;;;2.44;100.00
59877;BME280;45749;51.140;17.184;2022-12-07T09:19:49;99552.53;;;2.49;100.00
59877;BME280;45749;51.140;17.184;2022-12-07T09:22:15;99547.95;;;2.54;100.00
59877;BME280;45749;51.140;17.184;2022-12-07T09:24:41;99536.34;;;2.59;100.00
59877;BME280;45749;51.140;17.184;2022-12-07T09:27:08;99539.62;;;2.63;100.00
59877;BME280;45749;51.140;17.184;2022-12-07T09:29:34;99532.12;;;2.66;100.00
59877;BME280;45749;51.140;17.184;2022-12-07T09:32:00;99532.80;;;2.69;100.00
59877;BME280;45749;51.140;17.184;2022-12-07T09:34:26;99533.04;;;2.73;100.00
59877;BME280;45749;51.140;17.184;2022-12-07T09:36:52;99529.71;;;2.78;99.97
59877;BME280;45749;51.140;17.184;2022-12-07T09:39:18;99524.34;;;2.81;100.00
59877;BME280;45749;51.140;17.184;2022-12-07T09:41:44;99523.64;;;2.87;99.52
59877;BME280;45749;51.140;17.184;2022-12-07T09:44:18;99514.73;;;2.91;99.41
59877;BME280;45749;51.140;17.184;2022-12-07T09:46:45;99517.55;;;2.95;99.23
59877;BME280;45749;51.140;17.184;2022-12-07T09:49:19;99515.61;;;2.98;98.50
59877;BME280;45749;51.140;17.184;2022-12-07T09:51:44;99513.30;;;3.01;98.65
59877;BME280;45749;51.140;17.184;2022-12-07T09:54:15;99504.95;;;3.03;98.38
59877;BME280;45749;51.140;17.184;2022-12-07T09:56:43;99508.13;;;3.08;97.83
59877;BME280;45749;51.140;17.184;2022-12-07T09:59:13;99506.66;;;3.11;97.71
59877;BME280;45749;51.140;17.184;2022-12-07T10:01:41;99506.13;;;3.13;97.13
59877;BME280;45749;51.140;17.184;2022-12-07T10:04:20;99503.52;;;3.13;97.08
59877;BME280;45749;51.140;17.184;2022-12-07T10:06:50;99501.65;;;3.15;97.24
59877;BME280;45749;51.140;17.184;2022-12-07T10:09:20;99502.89;;;3.17;96.93
59877;BME280;45749;51.140;17.184;2022-12-07T10:12:08;99504.66;;;3.16;96.82
59877;BME280;45749;51.140;17.184;2022-12-07T10:14:38;99489.02;;;3.16;96.92
59877;BME280;45749;51.140;17.184;2022-12-07T10:17:26;99486.24;;;3.19;97.27
59877;BME280;45749;51.140;17.184;2022-12-07T10:20:14;99480.29;;;3.24;96.83
59877;BME280;45749;51.140;17.184;2022-12-07T10:23:03;99480.59;;;3.27;96.42
59877;BME280;45749;51.140;17.184;2022-12-07T10:25:33;99466.15;;;3.28;97.23
59877;BME280;45749;51.140;17.184;2022-12-07T10:28:17;99463.30;;;3.33;97.22
59877;BME280;45749;51.140;17.184;2022-12-07T10:31:03;99468.34;;;3.36;96.73
59877;BME280;45749;51.140;17.184;2022-12-07T10:33:37;99458.64;;;3.38;96.75
59877;BME280;45749;51.140;17.184;2022-12-07T10:39:18;99462.09;;;3.39;96.76
59877;BME280;45749;51.140;17.184;2022-12-07T10:42:00;99459.95;;;3.38;96.07
59877;BME280;45749;51.140;17.184;2022-12-07T10:44:32;99462.09;;;3.39;95.77
59877;BME280;45749;51.140;17.184;2022-12-07T10:56:33;99473.09;;;3.37;96.78
59877;BME280;45749;51.140;17.184;2022-12-07T11:02:09;99464.01;;;3.28;97.46
59877;BME280;45749;51.140;17.184;2022-12-07T11:04:59;99464.48;;;3.27;97.57
59877;BME280;45749;51.140;17.184;2022-12-07T11:19:14;99460.91;;;3.21;97.38
59877;BME280;45749;51.140;17.184;2022-12-07T11:30:38;99448.02;;;3.11;97.62
59877;BME280;45749;51.140;17.184;2022-12-07T11:33:10;99448.55;;;3.09;97.94
59877;BME280;45749;51.140;17.184;2022-12-07T11:35:54;99442.90;;;3.10;98.12
59877;BME280;45749;51.140;17.184;2022-12-07T11:41:09;99441.96;;;3.11;98.31
59877;BME280;45749;51.140;17.184;2022-12-07T11:43:44;99442.73;;;3.13;98.24
59877;BME280;45749;51.140;17.184;2022-12-07T11:46:12;99434.91;;;3.13;97.74
59877;BME280;45749;51.140;17.184;2022-12-07T11:49:20;99434.04;;;3.12;97.74
59877;BME280;45749;51.140;17.184;2022-12-07T11:52:01;99434.44;;;3.13;97.99
59877;BME280;45749;51.140;17.184;2022-12-07T11:54:32;99431.00;;;3.13;97.96
59877;BME280;45749;51.140;17.184;2022-12-07T11:57:03;99434.91;;;3.13;97.67
59877;BME280;45749;51.140;17.184;2022-12-07T11:59:36;99431.90;;;3.12;97.71
59877;BME280;45749;51.140;17.184;2022-12-07T12:02:23;99423.24;;;3.11;97.97
59877;BME280;45749;51.140;17.184;2022-12-07T12:05:17;99429.23;;;3.13;98.00
59877;BME280;45749;51.140;17.184;2022-12-07T12:07:54;99420.10;;;3.13;97.98
59877;BME280;45749;51.140;17.184;2022-12-07T12:19:04;99417.86;;;3.14;97.96
59877;BME280;45749;51.140;17.184;2022-12-07T12:21:34;99424.02;;;3.13;98.13
59877;BME280;45749;51.140;17.184;2022-12-07T12:24:13;99453.05;;;3.14;98.11
59877;BME280;45749;51.140;17.184;2022-12-07T12:26:53;99429.70;;;3.13;97.57
59877;BME280;45749;51.140;17.184;2022-12-07T12:34:59;99434.53;;;3.19;97.80
59877;BME280;45749;51.140;17.184;2022-12-07T12:37:39;99422.73;;;3.20;97.80
59877;BME280;45749;51.140;17.184;2022-12-07T12:42:54;99430.92;;;3.21;97.37
59877;BME280;45749;51.140;17.184;2022-12-07T12:45:29;99420.50;;;3.21;97.47
59877;BME280;45749;51.140;17.184;2022-12-07T12:50:48;99422.56;;;3.23;97.18
59877;BME280;45749;51.140;17.184;2022-12-07T12:53:25;99417.25;;;3.25;96.71
59877;BME280;45749;51.140;17.184;2022-12-07T12:56:21;99413.27;;;3.26;96.79
59877;BME280;45749;51.140;17.184;2022-12-07T12:58:47;99412.69;;;3.28;96.77
59877;BME280;45749;51.140;17.184;2022-12-07T13:06:45;99415.23;;;3.30;96.42
59877;BME280;45749;51.140;17.184;2022-12-07T13:09:30;99426.03;;;3.31;96.22
59877;BME280;45749;51.140;17.184;2022-12-07T13:12:11;99426.86;;;3.32;96.14
59877;BME280;45749;51.140;17.184;2022-12-07T13:14:55;99419.98;;;3.31;96.02
59877;BME280;45749;51.140;17.184;2022-12-07T13:20:06;99429.47;;;3.32;96.13
59877;BME280;45749;51.140;17.184;2022-12-07T13:22:39;99422.58;;;3.31;96.27
59877;BME280;45749;51.140;17.184;2022-12-07T13:25:22;99417.27;;;3.32;96.50
59877;BME280;45749;51.140;17.184;2022-12-07T13:28:09;99427.26;;;3.33;96.42
59877;BME280;45749;51.140;17.184;2022-12-07T13:30:47;99426.33;;;3.34;96.52
59877;BME280;45749;51.140;17.184;2022-12-07T13:33:16;99429.30;;;3.35;96.53
59877;BME280;45749;51.140;17.184;2022-12-07T13:35:44;99426.69;;;3.35;96.57
59877;BME280;45749;51.140;17.184;2022-12-07T13:38:22;99425.38;;;3.35;96.27
59877;BME280;45749;51.140;17.184;2022-12-07T13:41:11;99436.28;;;3.34;96.16
59877;BME280;45749;51.140;17.184;2022-12-07T13:43:51;99431.17;;;3.33;96.26
59877;BME280;45749;51.140;17.184;2022-12-07T13:49:24;99435.16;;;3.31;96.18
59877;BME280;45749;51.140;17.184;2022-12-07T13:51:53;99434.69;;;3.32;95.93
59877;BME280;45749;51.140;17.184;2022-12-07T13:54:20;99433.85;;;3.31;96.22
59877;BME280;45749;51.140;17.184;2022-12-07T13:56:51;99439.43;;;3.32;96.26
59877;BME280;45749;51.140;17.184;2022-12-07T13:59:21;99435.16;;;3.31;96.26
59877;BME280;45749;51.140;17.184;2022-12-07T14:01:49;99433.38;;;3.32;96.21
59877;BME280;45749;51.140;17.184;2022-12-07T14:06:59;99430.41;;;3.31;96.15
59877;BME280;45749;51.140;17.184;2022-12-07T14:09:28;99428.17;;;3.32;96.15
59877;BME280;45749;51.140;17.184;2022-12-07T14:11:57;99426.39;;;3.32;96.12
59877;BME280;45749;51.140;17.184;2022-12-07T14:14:26;99419.88;;;3.32;96.01
59877;BME280;45749;51.140;17.184;2022-12-07T14:17:12;99419.04;;;3.32;96.01
59877;BME280;45749;51.140;17.184;2022-12-07T14:22:33;99409.62;;;3.29;96.01
59877;BME280;45749;51.140;17.184;2022-12-07T14:25:18;99419.61;;;3.29;95.89
59877;BME280;45749;51.140;17.184;2022-12-07T14:27:52;99415.70;;;3.29;95.65
59877;BME280;45749;51.140;17.184;2022-12-07T14:30:31;99418.84;;;3.27;95.42
59877;BME280;45749;51.140;17.184;2022-12-07T14:33:02;99422.39;;;3.26;95.50
59877;BME280;45749;51.140;17.184;2022-12-07T14:35:30;99410.26;;;3.25;95.42
59877;BME280;45749;51.140;17.184;2022-12-07T14:37:58;99415.41;;;3.27;95.37
59877;BME280;45749;51.140;17.184;2022-12-07T14:40:26;99425.00;;;3.26;95.18
59877;BME280;45749;51.140;17.184;2022-12-07T14:43:08;99420.69;;;3.25;95.14
59877;BME280;45749;51.140;17.184;2022-12-07T14:45:30;99419.95;;;3.23;94.93
59877;BME280;45749;51.140;17.184;2022-12-07T14:47:56;99427.77;;;3.23;94.79
59877;BME280;45749;51.140;17.184;2022-12-07T14:50:22;99423.94;;;3.22;94.49
59877;BME280;45749;51.140;17.184;2022-12-07T14:52:55;99431.86;;;3.20;94.28
59877;BME280;45749;51.140;17.184;2022-12-07T14:55:27;99432.33;;;3.20;94.21
59877;BME280;45749;51.140;17.184;2022-12-07T14:57:55;99429.79;;;3.18;94.49
59877;BME280;45749;51.140;17.184;2022-12-07T15:00:24;99433.33;;;3.17;94.35
59877;BME280;45749;51.140;17.184;2022-12-07T15:02:53;99438.55;;;3.17;94.38
59877;BME280;45749;51.140;17.184;2022-12-07T15:05:19;99436.11;;;3.14;94.45
59877;BME280;45749;51.140;17.184;2022-12-07T15:07:47;99439.19;;;3.14;94.22